Pikangikum, Canada
Current Conditions -  °F | °C
As of 4:00 PM on Thursday 27 Nov 2014 (Local Time) from CYRL Reporting Station
Broken Clouds Broken Clouds  
Wind Chill: -12°   Ceiling: 24000
Heat Index: -2°   Visibility: 15mi
Dew Point: -9°   Wind: 5mph
Humidity: 71%   Direction: 200°SSW
Pressure: 30.25"   Gusts: NA
Location:  51.82°N, 94°W
Report Text: CYRL 272200Z 20004KT 15SM FEW100 FEW160 BKN240 M19/M23 A3025 RMK AC2AC1CI5 AC TR CONTRAILS SLP294
Loading
Personal Weather Stations






























Interactive Weather Map New forecast layout! Learn more

10-Day Weather Forecast

Advertisements
Track Severe Weather on mobile